createdAt,value
2018-11-02T00:02:17.048Z,8.23
2018-11-02T00:04:47.062Z,8.15
2018-11-02T00:07:17.298Z,8.09
2018-11-02T00:09:47.154Z,8.15
2018-11-02T00:12:16.279Z,8.26
2018-11-02T00:14:47.679Z,8.32
2018-11-02T00:17:15.934Z,8.32
2018-11-02T00:19:44.113Z,8.33
2018-11-02T00:22:13.508Z,8.34
2018-11-02T00:24:42.297Z,8.26
2018-11-02T00:27:10.456Z,8.25
2018-11-02T00:29:38.587Z,8.30
2018-11-02T00:32:07.465Z,8.23
2018-11-02T00:34:36.090Z,8.26
2018-11-02T00:37:05.720Z,8.21
2018-11-02T00:39:35.070Z,8.20
2018-11-02T00:42:04.913Z,8.19
2018-11-02T00:44:34.730Z,8.18
2018-11-02T00:47:04.824Z,8.20
2018-11-02T00:49:35.356Z,8.15
2018-11-02T00:52:05.125Z,8.12
2018-11-02T00:54:35.728Z,8.09
2018-11-02T00:57:05.572Z,8.09
2018-11-02T00:59:35.847Z,8.01
2018-11-02T01:02:05.515Z,7.98
2018-11-02T01:04:35.787Z,7.94
2018-11-02T01:07:05.897Z,8.00
2018-11-02T01:09:36.277Z,8.06
2018-11-02T01:12:06.352Z,8.14
2018-11-02T01:14:36.286Z,8.13
2018-11-02T01:17:07.406Z,8.14
2018-11-02T01:19:35.538Z,8.12
2018-11-02T01:22:05.182Z,8.17
2018-11-02T01:24:33.628Z,8.30
2018-11-02T01:27:01.769Z,8.22
2018-11-02T01:29:30.706Z,8.23
2018-11-02T01:31:59.016Z,8.21
2018-11-02T01:34:27.301Z,8.20
2018-11-02T01:36:56.357Z,8.12
2018-11-02T01:39:25.590Z,8.07
2018-11-02T01:41:53.734Z,8.08
2018-11-02T01:44:21.899Z,8.09
2018-11-02T01:46:50.069Z,8.11
2018-11-02T01:49:18.240Z,8.16
2018-11-02T01:51:47.226Z,8.27
2018-11-02T01:54:15.350Z,8.18
2018-11-02T01:56:43.726Z,8.19
2018-11-02T01:59:11.877Z,8.29
2018-11-02T02:01:40.015Z,8.19
2018-11-02T02:04:08.768Z,8.20
2018-11-02T02:06:37.041Z,8.22
2018-11-02T02:09:08.138Z,8.19
2018-11-02T02:11:36.335Z,8.18
2018-11-02T02:14:04.750Z,8.18
2018-11-02T02:16:32.899Z,8.16
2018-11-02T02:19:01.106Z,8.21
2018-11-02T02:21:29.234Z,8.21
2018-11-02T02:23:57.371Z,8.16
2018-11-02T02:26:25.531Z,8.29
2018-11-02T02:28:53.669Z,8.22
2018-11-02T02:31:21.790Z,8.24
2018-11-02T02:33:49.950Z,8.26
2018-11-02T02:36:18.104Z,8.24
2018-11-02T02:38:46.261Z,8.39
2018-11-02T02:41:14.397Z,8.45
2018-11-02T02:43:42.538Z,8.42
2018-11-02T02:46:11.186Z,8.41
2018-11-02T02:48:39.336Z,8.55
2018-11-02T02:51:07.528Z,8.55
2018-11-02T02:53:35.726Z,8.58
2018-11-02T02:56:03.873Z,8.60
2018-11-02T02:58:32.067Z,8.69
2018-11-02T03:01:00.225Z,8.75
2018-11-02T03:03:28.416Z,8.74
2018-11-02T03:05:57.086Z,8.80
2018-11-02T03:08:25.233Z,8.75
2018-11-02T03:10:53.592Z,8.68
2018-11-02T03:13:21.623Z,8.59
2018-11-02T03:15:49.762Z,8.51
2018-11-02T03:18:17.919Z,8.41
2018-11-02T03:20:46.056Z,8.39
2018-11-02T03:23:14.208Z,8.34
2018-11-02T03:25:43.093Z,8.26
2018-11-02T03:28:11.237Z,8.15
2018-11-02T03:30:39.382Z,8.21
2018-11-02T03:33:07.510Z,8.24
2018-11-02T03:35:35.671Z,8.27
2018-11-02T03:38:03.807Z,8.28
2018-11-02T03:40:32.027Z,8.30
2018-11-02T03:43:00.205Z,8.36
2018-11-02T03:45:28.321Z,8.27
2018-11-02T03:47:56.513Z,8.31
2018-11-02T03:50:24.738Z,8.27
2018-11-02T03:52:52.859Z,8.18
2018-11-02T03:55:21.067Z,8.19
2018-11-02T03:57:49.186Z,8.23
2018-11-02T04:00:17.329Z,8.23
2018-11-02T04:02:45.473Z,8.20
2018-11-02T04:05:13.688Z,8.15
2018-11-02T04:07:41.836Z,8.22
2018-11-02T04:10:10.782Z,8.22
2018-11-02T04:12:38.972Z,8.12
2018-11-02T04:15:07.238Z,8.09
2018-11-02T04:17:35.402Z,8.18
2018-11-02T04:20:03.527Z,8.22
2018-11-02T04:22:31.680Z,8.33
2018-11-02T04:24:59.830Z,8.33
2018-11-02T04:27:27.990Z,8.46
2018-11-02T04:29:56.910Z,8.53
2018-11-02T04:32:25.091Z,8.48
2018-11-02T04:34:53.286Z,8.61
2018-11-02T04:37:21.464Z,8.60
2018-11-02T04:39:49.602Z,8.42
2018-11-02T04:42:17.767Z,8.30
2018-11-02T04:44:47.680Z,8.30
2018-11-02T04:47:15.866Z,8.27
2018-11-02T04:49:44.015Z,8.29
2018-11-02T04:52:12.235Z,8.32
2018-11-02T04:54:40.395Z,8.35
2018-11-02T04:57:08.522Z,8.35
2018-11-02T04:59:36.805Z,8.29
2018-11-02T05:02:05.151Z,8.26
2018-11-02T05:04:33.302Z,8.22
2018-11-02T05:07:01.495Z,8.21
2018-11-02T05:09:29.635Z,8.17
2018-11-02T05:11:57.893Z,8.00
2018-11-02T05:14:26.026Z,8.07
2018-11-02T05:16:54.801Z,8.10
2018-11-02T05:19:23.361Z,8.09
2018-11-02T05:21:51.505Z,7.92
2018-11-02T05:24:19.723Z,7.88
2018-11-02T05:26:49.374Z,7.88
2018-11-02T05:29:18.989Z,7.90
2018-11-02T05:31:48.818Z,7.96
2018-11-02T05:34:18.633Z,7.99
2018-11-02T05:36:46.870Z,8.13
2018-11-02T05:39:15.391Z,8.11
2018-11-02T05:41:43.845Z,8.08
2018-11-02T05:44:12.274Z,8.11
2018-11-02T05:46:41.111Z,8.11
2018-11-02T05:49:09.250Z,8.12
2018-11-02T05:51:37.408Z,8.09
2018-11-02T05:54:06.610Z,8.17
2018-11-02T05:56:35.162Z,8.19
2018-11-02T05:59:04.518Z,8.17
2018-11-02T06:01:34.863Z,8.10
2018-11-02T06:04:03.506Z,8.11
2018-11-02T06:06:34.226Z,8.10
2018-11-02T06:09:03.948Z,8.15
2018-11-02T06:11:34.394Z,8.15
2018-11-02T06:14:04.713Z,8.19
2018-11-02T06:16:34.228Z,8.20
2018-11-02T06:19:04.919Z,8.15
2018-11-02T06:21:35.634Z,8.08
2018-11-02T06:24:05.098Z,8.06
2018-11-02T06:26:35.815Z,8.15
2018-11-02T06:29:04.325Z,8.14
2018-11-02T06:31:32.554Z,8.08
2018-11-02T06:34:01.666Z,8.00
2018-11-02T06:36:30.178Z,8.03
2018-11-02T06:39:00.402Z,8.04
2018-11-02T06:41:28.735Z,8.00
2018-11-02T06:43:56.879Z,8.02
2018-11-02T06:46:25.017Z,8.08
2018-11-02T06:48:54.137Z,8.08
2018-11-02T06:51:22.275Z,8.03
2018-11-02T06:53:50.508Z,8.00
2018-11-02T06:56:18.701Z,8.00
2018-11-02T06:58:46.902Z,7.92
2018-11-02T07:01:15.156Z,7.95
2018-11-02T07:03:43.330Z,7.87
2018-11-02T07:06:11.485Z,7.98
2018-11-02T07:08:39.727Z,8.03
2018-11-02T07:11:08.311Z,8.15
2018-11-02T07:13:37.131Z,8.14
2018-11-02T07:16:05.638Z,8.08
2018-11-02T07:18:33.901Z,8.09
2018-11-02T07:21:02.091Z,8.08
2018-11-02T07:23:30.230Z,8.09
2018-11-02T07:25:58.509Z,8.12
2018-11-02T07:28:26.674Z,8.10
2018-11-02T07:30:55.743Z,8.09
2018-11-02T07:33:24.274Z,8.15
2018-11-02T07:35:52.493Z,8.30
2018-11-02T07:38:20.752Z,8.27
2018-11-02T07:40:48.995Z,8.21
2018-11-02T07:43:17.146Z,8.04
2018-11-02T07:45:45.323Z,8.12
2018-11-02T07:48:13.498Z,8.16
2018-11-02T07:50:41.690Z,8.19
2018-11-02T07:53:09.894Z,8.19
2018-11-02T07:55:38.045Z,8.11
2018-11-02T07:58:06.351Z,8.23
2018-11-02T08:00:34.494Z,8.20
2018-11-02T08:03:02.687Z,8.18
2018-11-02T08:05:30.963Z,8.16
2018-11-02T08:07:59.094Z,8.19
2018-11-02T08:10:27.886Z,8.17
2018-11-02T08:12:56.055Z,8.19
2018-11-02T08:15:24.201Z,8.29
2018-11-02T08:17:53.211Z,8.29
2018-11-02T08:20:21.391Z,8.27
2018-11-02T08:22:49.611Z,8.36
2018-11-02T08:25:17.882Z,8.57
2018-11-02T08:27:46.126Z,8.59
2018-11-02T08:30:14.284Z,8.60
2018-11-02T08:32:42.497Z,8.72
2018-11-02T08:35:13.778Z,8.61
2018-11-02T08:37:42.297Z,8.54
2018-11-02T08:40:12.198Z,8.72
2018-11-02T08:42:40.489Z,8.89
2018-11-02T08:45:09.274Z,9.11
2018-11-02T08:47:37.570Z,9.22
2018-11-02T08:50:07.042Z,9.49
2018-11-02T08:52:35.291Z,9.71
2018-11-02T08:55:03.490Z,9.67
2018-11-02T08:57:31.684Z,9.54
2018-11-02T08:59:59.841Z,9.48
2018-11-02T09:02:28.534Z,9.45
2018-11-02T09:04:57.226Z,9.46
2018-11-02T09:07:25.485Z,9.49
2018-11-02T09:09:53.894Z,9.05
2018-11-02T09:12:22.058Z,9.04
2018-11-02T09:14:50.258Z,9.06
2018-11-02T09:17:18.435Z,9.17
2018-11-02T09:19:46.628Z,9.27
2018-11-02T09:22:14.847Z,9.34
2018-11-02T09:24:43.004Z,9.38
2018-11-02T09:27:11.217Z,9.46
2018-11-02T09:29:40.586Z,9.46
2018-11-02T09:32:08.763Z,9.56
2018-11-02T09:34:36.910Z,9.57
2018-11-02T09:37:05.382Z,9.63
2018-11-02T09:39:33.529Z,9.60
2018-11-02T09:42:01.668Z,9.41
2018-11-02T09:44:29.863Z,9.29
2018-11-02T09:46:57.989Z,9.14
2018-11-02T09:49:26.189Z,9.24
2018-11-02T09:51:54.406Z,9.36
2018-11-02T09:54:22.514Z,9.44
2018-11-02T09:56:50.681Z,9.49
2018-11-02T09:59:18.907Z,9.54
2018-11-02T10:01:47.067Z,9.50
2018-11-02T10:04:15.581Z,9.49
2018-11-02T10:06:43.750Z,9.47
2018-11-02T10:09:13.050Z,9.41
2018-11-02T10:11:41.065Z,9.47
2018-11-02T10:14:10.271Z,9.49
2018-11-02T10:16:38.454Z,9.68
2018-11-02T10:19:07.037Z,9.78
2018-11-02T10:21:35.256Z,9.76
2018-11-02T10:24:03.523Z,9.70
2018-11-02T10:26:31.541Z,9.80
2018-11-02T10:28:59.733Z,9.65
2018-11-02T10:31:27.903Z,9.62
2018-11-02T10:33:56.042Z,9.77
2018-11-02T10:36:24.275Z,9.84
2018-11-02T10:38:53.162Z,9.84
2018-11-02T10:41:26.419Z,9.57
2018-11-02T10:43:54.617Z,9.41
2018-11-02T10:46:22.883Z,9.36
2018-11-02T10:48:51.072Z,9.26
2018-11-02T10:51:19.229Z,9.09
2018-11-02T10:53:47.362Z,9.03
2018-11-02T10:56:15.596Z,9.04
2018-11-02T10:58:43.758Z,9.09
2018-11-02T11:01:17.387Z,9.10
2018-11-02T11:03:45.543Z,9.15
2018-11-02T11:06:13.813Z,9.27
2018-11-02T11:08:42.028Z,9.42
2018-11-02T11:11:10.391Z,9.45
2018-11-02T11:13:38.841Z,9.55
2018-11-02T11:16:06.772Z,9.70
2018-11-02T11:18:34.962Z,9.77
2018-11-02T11:21:03.125Z,9.85
2018-11-02T11:23:31.355Z,9.91
2018-11-02T11:25:59.514Z,10.03
2018-11-02T11:28:27.783Z,10.10
2018-11-02T11:30:56.038Z,10.15
2018-11-02T11:33:24.718Z,10.17
2018-11-02T11:35:52.883Z,10.21
2018-11-02T11:38:21.050Z,10.27
2018-11-02T11:40:49.302Z,10.39
2018-11-02T11:43:17.465Z,10.37
2018-11-02T11:45:45.683Z,10.29
2018-11-02T11:48:13.891Z,10.15
2018-11-02T11:50:42.143Z,10.15
2018-11-02T11:53:11.115Z,10.29
2018-11-02T11:55:39.267Z,10.28
2018-11-02T11:58:07.486Z,10.35
2018-11-02T12:00:35.714Z,10.39
2018-11-02T12:03:03.867Z,10.46
2018-11-02T12:05:32.015Z,10.44
2018-11-02T12:08:00.202Z,10.39
2018-11-02T12:10:28.513Z,10.44
2018-11-02T12:12:56.652Z,10.43
2018-11-02T12:15:24.828Z,10.42
2018-11-02T12:17:52.990Z,10.34
2018-11-02T12:20:24.381Z,10.31
2018-11-02T12:22:54.290Z,10.41
2018-11-02T12:25:22.440Z,10.43
2018-11-02T12:27:51.976Z,10.50
2018-11-02T12:30:20.418Z,10.43
2018-11-02T12:32:48.794Z,10.32
2018-11-02T12:35:17.866Z,10.14
2018-11-02T12:37:46.626Z,10.09
2018-11-02T12:40:16.040Z,10.02
2018-11-02T12:42:44.836Z,9.94
2018-11-02T12:45:14.635Z,10.06
2018-11-02T12:47:43.333Z,10.24
2018-11-02T12:50:16.111Z,10.53
2018-11-02T12:52:44.924Z,10.69
2018-11-02T12:55:13.699Z,10.63
2018-11-02T12:57:42.272Z,10.59
2018-11-02T13:00:15.358Z,10.81
2018-11-02T13:02:44.462Z,10.86
2018-11-02T13:05:12.722Z,10.80
2018-11-02T13:07:41.006Z,10.86
2018-11-02T13:10:11.537Z,10.96
2018-11-02T13:12:40.547Z,10.97
2018-11-02T13:15:10.855Z,10.98
2018-11-02T13:17:39.521Z,10.93
2018-11-02T13:20:08.228Z,10.88
2018-11-02T13:22:36.582Z,10.75
2018-11-02T13:25:05.726Z,10.58
2018-11-02T13:27:33.868Z,10.35
2018-11-02T13:30:02.140Z,9.90
2018-11-02T13:32:30.610Z,10.01
2018-11-02T13:34:58.792Z,10.16
2018-11-02T13:37:26.938Z,10.20
2018-11-02T13:39:55.203Z,10.29
2018-11-02T13:42:23.410Z,10.24
2018-11-02T13:44:51.558Z,10.33
2018-11-02T13:47:19.724Z,10.43
2018-11-02T13:49:47.891Z,10.41
2018-11-02T13:52:16.164Z,10.43
2018-11-02T13:54:44.394Z,10.44
2018-11-02T13:57:12.550Z,10.40
2018-11-02T13:59:40.717Z,10.38
2018-11-02T14:02:09.757Z,10.37
2018-11-02T14:04:37.955Z,10.33
2018-11-02T14:07:06.149Z,10.36
2018-11-02T14:09:34.378Z,10.35
2018-11-02T14:12:03.455Z,10.40
2018-11-02T14:14:31.731Z,10.41
2018-11-02T14:17:00.375Z,10.37
2018-11-02T14:19:28.797Z,10.36
2018-11-02T14:21:56.955Z,10.40
2018-11-02T14:24:25.763Z,10.34
2018-11-02T14:26:53.931Z,10.31
2018-11-02T14:29:22.127Z,10.28
2018-11-02T14:31:51.076Z,10.25
2018-11-02T14:34:19.255Z,10.38
2018-11-02T14:36:47.423Z,10.39
2018-11-02T14:39:15.655Z,10.32
2018-11-02T14:41:44.600Z,10.30
2018-11-02T14:44:12.783Z,10.26
2018-11-02T14:46:41.485Z,10.27
2018-11-02T14:49:09.555Z,10.25
2018-11-02T14:51:37.809Z,10.25
2018-11-02T14:54:09.146Z,10.22
2018-11-02T14:56:37.331Z,10.24
2018-11-02T14:59:05.487Z,10.25
2018-11-02T15:01:34.158Z,10.24
2018-11-02T15:04:02.337Z,10.23
2018-11-02T15:06:30.482Z,10.23
2018-11-02T15:08:58.672Z,10.17
2018-11-02T15:11:26.929Z,10.09
2018-11-02T15:13:55.160Z,10.08
2018-11-02T15:16:23.358Z,10.00
2018-11-02T15:18:51.535Z,9.96
2018-11-02T15:21:19.793Z,9.97
2018-11-02T15:23:48.053Z,9.96
2018-11-02T15:26:16.243Z,10.08
2018-11-02T15:28:45.011Z,10.01
2018-11-02T15:31:13.195Z,9.99
2018-11-02T15:33:41.389Z,9.92
2018-11-02T15:36:09.565Z,9.79
2018-11-02T15:38:37.787Z,10.01
2018-11-02T15:41:05.969Z,9.92
2018-11-02T15:43:34.141Z,9.84
2018-11-02T15:46:02.318Z,9.88
2018-11-02T15:48:30.543Z,9.99
2018-11-02T15:50:58.792Z,10.05
2018-11-02T15:53:27.141Z,9.99
2018-11-02T15:55:58.511Z,10.18
2018-11-02T15:58:26.692Z,10.11
2018-11-02T16:00:54.854Z,10.01
2018-11-02T16:03:23.014Z,9.84
2018-11-02T16:05:51.174Z,9.73
2018-11-02T16:08:19.352Z,9.20
2018-11-02T16:10:47.538Z,8.71
2018-11-02T16:13:15.820Z,8.48
2018-11-02T16:15:44.009Z,8.46
2018-11-02T16:18:12.159Z,8.48
2018-11-02T16:20:40.351Z,8.46
2018-11-02T16:23:08.911Z,8.33
2018-11-02T16:25:37.171Z,8.26
2018-11-02T16:28:05.383Z,8.15
2018-11-02T16:30:34.034Z,8.10
2018-11-02T16:33:02.222Z,8.03
2018-11-02T16:35:30.362Z,7.92
2018-11-02T16:37:58.582Z,7.84
2018-11-02T16:40:26.745Z,7.67
2018-11-02T16:42:55.335Z,7.54
2018-11-02T16:45:23.490Z,7.46
2018-11-02T16:47:51.678Z,7.39
2018-11-02T16:50:19.826Z,7.26
2018-11-02T16:52:48.030Z,7.16
2018-11-02T16:55:16.169Z,7.07
2018-11-02T16:57:45.311Z,6.97
2018-11-02T17:00:19.118Z,6.84
2018-11-02T17:02:48.307Z,6.64
2018-11-02T17:05:16.928Z,6.42
2018-11-02T17:07:45.092Z,6.34
2018-11-02T17:10:14.380Z,6.16
2018-11-02T17:12:43.069Z,5.48
2018-11-02T17:15:14.400Z,5.33
2018-11-02T17:17:42.666Z,5.47
2018-11-02T17:20:14.753Z,5.58
2018-11-02T17:22:43.030Z,5.72
2018-11-02T17:25:11.978Z,5.84
2018-11-02T17:27:40.357Z,5.60
2018-11-02T17:30:11.201Z,5.24
2018-11-02T17:32:39.488Z,5.19
2018-11-02T17:35:08.006Z,5.17
2018-11-02T17:37:36.533Z,5.13
2018-11-02T17:40:04.947Z,5.10
2018-11-02T17:42:33.134Z,5.04
2018-11-02T17:45:01.358Z,5.07
2018-11-02T17:47:29.553Z,5.02
2018-11-02T17:49:57.671Z,4.82
2018-11-02T17:52:26.078Z,4.65
2018-11-02T17:54:54.233Z,4.59
2018-11-02T17:57:22.965Z,4.55
2018-11-02T17:59:52.832Z,4.68
2018-11-02T18:02:23.533Z,4.79
2018-11-02T18:04:54.098Z,4.94
2018-11-02T18:07:24.162Z,4.83
2018-11-02T18:09:54.414Z,4.48
2018-11-02T18:12:24.399Z,3.90
2018-11-02T18:14:54.246Z,3.91
2018-11-02T18:17:24.802Z,3.88
2018-11-02T18:19:54.715Z,3.74
2018-11-02T18:22:23.001Z,3.76
2018-11-02T18:24:51.012Z,3.90
2018-11-02T18:27:19.171Z,3.85
2018-11-02T18:29:47.394Z,3.83
2018-11-02T18:32:15.594Z,3.90
2018-11-02T18:34:43.809Z,3.91
2018-11-02T18:37:11.885Z,4.11
2018-11-02T18:39:40.038Z,3.89
2018-11-02T18:42:08.188Z,3.82
2018-11-02T18:44:36.883Z,3.80
2018-11-02T18:47:05.150Z,3.85
2018-11-02T18:49:33.327Z,3.82
2018-11-02T18:52:01.596Z,3.92
2018-11-02T18:54:29.774Z,3.94
2018-11-02T18:56:57.902Z,3.95
2018-11-02T18:59:26.089Z,3.98
2018-11-02T19:01:54.256Z,4.01
2018-11-02T19:04:22.401Z,4.12
2018-11-02T19:06:50.666Z,4.51
2018-11-02T19:09:20.050Z,4.73
2018-11-02T19:11:49.893Z,4.91
2018-11-02T19:14:18.371Z,4.53
2018-11-02T19:16:46.690Z,4.29
2018-11-02T19:19:16.051Z,4.26
2018-11-02T19:21:44.344Z,4.42
2018-11-02T19:24:12.356Z,4.30
2018-11-02T19:26:41.418Z,4.23
2018-11-02T19:29:10.335Z,4.38
2018-11-02T19:31:38.475Z,4.32
2018-11-02T19:34:07.127Z,4.34
2018-11-02T19:36:35.294Z,4.38
2018-11-02T19:39:05.114Z,4.25
2018-11-02T19:41:33.367Z,4.18
2018-11-02T19:44:01.530Z,4.20
2018-11-02T19:46:29.670Z,4.09
2018-11-02T19:48:57.889Z,4.04
2018-11-02T19:51:26.100Z,3.88
2018-11-02T19:53:54.262Z,3.89
2018-11-02T19:56:22.443Z,3.65
2018-11-02T19:58:50.598Z,3.52
2018-11-02T20:01:18.751Z,3.46
2018-11-02T20:03:46.934Z,3.37
2018-11-02T20:06:15.090Z,3.36
2018-11-02T20:08:43.238Z,3.44
2018-11-02T20:11:11.423Z,3.42
2018-11-02T20:13:39.570Z,3.15
2018-11-02T20:16:07.820Z,2.80
2018-11-02T20:18:36.773Z,2.79
2018-11-02T20:21:05.173Z,2.81
2018-11-02T20:23:33.366Z,2.89
2018-11-02T20:26:02.118Z,3.02
2018-11-02T20:28:30.296Z,2.80
2018-11-02T20:30:58.512Z,2.68
2018-11-02T20:33:26.703Z,2.80
2018-11-02T20:35:54.901Z,2.72
2018-11-02T20:38:23.059Z,2.71
2018-11-02T20:40:51.262Z,2.70
2018-11-02T20:43:19.414Z,2.68
2018-11-02T20:45:47.578Z,2.69
2018-11-02T20:48:15.800Z,2.68
2018-11-02T20:50:43.946Z,2.57
2018-11-02T20:53:12.106Z,2.54
2018-11-02T20:55:40.251Z,2.75
2018-11-02T20:58:08.503Z,2.92
2018-11-02T21:00:37.677Z,2.43
2018-11-02T21:03:07.270Z,2.41
2018-11-02T21:05:35.769Z,2.43
2018-11-02T21:08:05.040Z,2.47
2018-11-02T21:10:33.086Z,2.44
2018-11-02T21:13:02.033Z,2.23
2018-11-02T21:15:31.670Z,1.80
2018-11-02T21:18:01.679Z,1.90
2018-11-02T21:20:32.090Z,2.03
2018-11-02T21:23:00.908Z,2.18
2018-11-02T21:25:31.415Z,2.16
2018-11-02T21:28:01.872Z,2.10
2018-11-02T21:30:30.091Z,2.30
2018-11-02T21:32:58.251Z,2.25
2018-11-02T21:35:26.459Z,2.38
2018-11-02T21:37:54.641Z,2.19
2018-11-02T21:40:23.997Z,2.18
2018-11-02T21:42:52.253Z,2.13
2018-11-02T21:45:21.473Z,2.23
2018-11-02T21:47:49.636Z,2.01
2018-11-02T21:50:18.059Z,1.81
2018-11-02T21:52:46.223Z,1.64
2018-11-02T21:55:14.377Z,1.67
2018-11-02T21:57:42.561Z,1.69
2018-11-02T22:00:13.187Z,1.84
2018-11-02T22:02:43.818Z,1.96
2018-11-02T22:05:14.045Z,1.98
2018-11-02T22:07:44.882Z,1.82
2018-11-02T22:10:14.392Z,1.86
2018-11-02T22:12:43.839Z,1.87
2018-11-02T22:15:13.775Z,1.85
2018-11-02T22:17:42.502Z,1.79
2018-11-02T22:20:12.923Z,1.85
2018-11-02T22:22:41.427Z,1.91
2018-11-02T22:25:10.375Z,1.98
2018-11-02T22:27:38.534Z,2.00
2018-11-02T22:30:08.926Z,2.07
2018-11-02T22:32:37.078Z,2.08
2018-11-02T22:35:05.519Z,2.07
2018-11-02T22:37:33.755Z,2.06
2018-11-02T22:40:01.920Z,1.90
2018-11-02T22:42:30.849Z,1.77
2018-11-02T22:45:00.738Z,1.71
2018-11-02T22:47:30.262Z,1.80
2018-11-02T22:50:00.123Z,1.83
2018-11-02T22:52:30.341Z,1.76
2018-11-02T22:55:00.398Z,1.68
2018-11-02T22:57:30.252Z,1.53
2018-11-02T22:59:59.900Z,1.53
2018-11-02T23:02:28.045Z,1.56
2018-11-02T23:04:57.829Z,1.49
2018-11-02T23:07:26.913Z,1.62
2018-11-02T23:09:56.353Z,1.77
2018-11-02T23:12:26.726Z,1.76
2018-11-02T23:14:58.148Z,1.69
2018-11-02T23:17:28.243Z,1.66
2018-11-02T23:19:58.065Z,1.64
2018-11-02T23:22:29.442Z,1.50
2018-11-02T23:24:59.999Z,1.40
2018-11-02T23:27:29.473Z,1.39
2018-11-02T23:29:58.786Z,1.29
2018-11-02T23:32:31.869Z,1.08
2018-11-02T23:35:01.568Z,1.05
2018-11-02T23:37:30.803Z,1.13
2018-11-02T23:39:59.746Z,1.14
2018-11-02T23:42:29.785Z,1.05
2018-11-02T23:45:01.202Z,1.02
2018-11-02T23:47:30.950Z,0.91
2018-11-02T23:50:01.066Z,0.97
2018-11-02T23:52:30.995Z,1.02
2018-11-02T23:55:01.577Z,1.13
2018-11-02T23:57:31.667Z,1.16
